Time;durP1;ratioP1;P1;durP2;ratioP2;P2;SDS_P1;SDS_P2;PMS_P1;PMS_P2;Temp;Humidity;BMP_temperature;BMP_pressure;BME280_temperature;BME280_humidity;BME280_pressure;Samples;Min_cycle;Max_cycle;Signal;HPM_P1;HPM_P2
2021/12/03 00:02:06;;;;;;;9.48;6.40;;;-0.10;99.90;;;;;;6160648;23;20014;-89
2021/12/03 00:04:34;;;;;;;10.25;7.30;;;-0.20;99.90;;;;;;6132526;23;20024;-86
2021/12/03 00:07:02;;;;;;;10.65;9.40;;;-0.20;99.90;;;;;;6101736;23;20046;-88
2021/12/03 00:09:34;;;;;;;14.18;8.20;;;-0.20;99.90;;;;;;6102349;23;20017;-87
2021/12/03 00:12:04;;;;;;;8.70;6.38;;;-0.20;99.90;;;;;;6078214;23;20027;-88
2021/12/03 00:14:34;;;;;;;11.40;8.38;;;-0.20;99.90;;;;;;6109389;23;20022;-87
2021/12/03 00:17:07;;;;;;;10.55;8.43;;;-0.20;99.90;;;;;;6113513;23;20010;-89
2021/12/03 00:19:35;;;;;;;11.85;8.45;;;-0.10;99.90;;;;;;6102808;23;20014;-88
2021/12/03 00:22:03;;;;;;;16.40;8.70;;;-0.20;99.90;;;;;;6101717;23;20032;-87
2021/12/03 00:24:31;;;;;;;11.82;7.40;;;-0.20;99.90;;;;;;6079356;23;20024;-88
2021/12/03 00:26:59;;;;;;;11.73;7.22;;;-0.20;99.90;;;;;;6107288;23;20036;-85
2021/12/03 00:29:27;;;;;;;9.27;6.40;;;-0.30;99.90;;;;;;6137858;23;20010;-88
2021/12/03 00:31:54;;;;;;;10.00;8.23;;;-0.40;99.90;;;;;;6125017;23;20018;-88
2021/12/03 00:34:23;;;;;;;7.50;5.57;;;-0.40;99.90;;;;;;6132181;23;20369;-88
2021/12/03 00:36:51;;;;;;;7.15;5.75;;;-0.40;99.90;;;;;;6168947;23;20445;-88
2021/12/03 00:39:18;;;;;;;13.88;6.50;;;-0.40;99.90;;;;;;6133858;23;20017;-86
2021/12/03 00:41:48;;;;;;;8.05;5.75;;;-0.40;99.90;;;;;;6157353;23;20368;-88
2021/12/03 00:44:18;;;;;;;8.18;4.82;;;-0.40;99.90;;;;;;6134450;23;20356;-88
2021/12/03 00:46:46;;;;;;;6.40;3.97;;;-0.40;99.90;;;;;;6139753;23;20025;-88
2021/12/03 00:49:13;;;;;;;9.35;6.28;;;-0.30;99.90;;;;;;6134802;23;20017;-89
2021/12/03 00:51:41;;;;;;;8.70;6.60;;;-0.40;99.90;;;;;;6133306;23;20077;-89
2021/12/03 00:54:09;;;;;;;6.75;4.80;;;-0.40;99.90;;;;;;6109030;23;20036;-89
2021/12/03 00:56:37;;;;;;;10.88;7.22;;;-0.40;99.90;;;;;;6143891;23;20009;-89
2021/12/03 00:59:07;;;;;;;16.58;6.82;;;-0.40;99.90;;;;;;6137626;23;20345;-88
2021/12/03 01:01:38;;;;;;;9.20;6.32;;;-0.40;99.90;;;;;;6168720;23;20460;-89
2021/12/03 01:04:07;;;;;;;8.52;5.53;;;-0.40;99.90;;;;;;6184396;23;20029;-90
2021/12/03 01:06:35;;;;;;;18.85;6.35;;;-0.40;99.90;;;;;;6109613;23;20025;-88
2021/12/03 01:09:04;;;;;;;8.02;5.55;;;-0.40;99.90;;;;;;6144883;23;20013;-90
2021/12/03 01:11:32;;;;;;;7.32;4.45;;;-0.40;99.90;;;;;;6109729;23;20544;-90
2021/12/03 01:14:00;;;;;;;15.85;7.07;;;-0.50;99.90;;;;;;6166895;23;20013;-89
2021/12/03 01:16:29;;;;;;;9.20;6.22;;;-0.50;99.90;;;;;;6110462;23;20024;-90
2021/12/03 01:18:58;;;;;;;10.05;6.72;;;-0.50;99.90;;;;;;6133521;23;20017;-89
2021/12/03 01:21:26;;;;;;;7.40;6.70;;;-0.50;99.90;;;;;;6168309;23;20325;-88
2021/12/03 01:23:56;;;;;;;11.48;5.80;;;-0.50;99.90;;;;;;6158647;23;20456;-88
2021/12/03 01:26:24;;;;;;;12.10;7.55;;;-0.40;99.90;;;;;;6139524;23;20024;-89
2021/12/03 01:28:52;;;;;;;8.23;6.78;;;-0.50;99.90;;;;;;6195491;23;20009;-90
2021/12/03 01:31:20;;;;;;;10.95;7.38;;;-0.50;99.90;;;;;;6161431;23;20028;-90
2021/12/03 01:33:48;;;;;;;9.52;6.57;;;-0.40;99.90;;;;;;6194630;23;20017;-89
2021/12/03 01:36:16;;;;;;;10.38;7.63;;;-0.50;99.90;;;;;;6168481;23;20013;-89
2021/12/03 01:38:44;;;;;;;7.88;5.63;;;-0.40;99.90;;;;;;6164048;23;20491;-89
2021/12/03 01:41:12;;;;;;;9.57;5.88;;;-0.40;99.90;;;;;;6143603;23;20020;-90
2021/12/03 01:43:43;;;;;;;12.02;8.52;;;-0.40;99.90;;;;;;6185497;23;20354;-89
2021/12/03 01:46:13;;;;;;;6.90;6.05;;;-0.50;99.90;;;;;;6166492;23;20029;-90
2021/12/03 01:48:42;;;;;;;6.55;5.20;;;-0.40;99.90;;;;;;6195038;23;20310;-89
2021/12/03 01:51:13;;;;;;;7.30;5.25;;;-0.40;99.90;;;;;;6138584;23;20361;-90
2021/12/03 01:53:41;;;;;;;8.50;5.82;;;-0.50;99.90;;;;;;6158852;23;20031;-90
2021/12/03 01:56:12;;;;;;;6.97;5.20;;;-0.50;99.90;;;;;;6132153;23;20073;-89
2021/12/03 01:58:41;;;;;;;8.83;5.57;;;-0.50;99.90;;;;;;6139475;23;20020;-89
2021/12/03 02:01:13;;;;;;;12.77;7.00;;;-0.50;99.90;;;;;;6133780;23;20017;-90
2021/12/03 02:03:42;;;;;;;;;;;-0.50;99.90;;;;;;6160820;23;20021;-89
2021/12/03 02:06:12;;;;;;;7.80;6.85;;;-0.50;99.90;;;;;;6133084;23;19916;-90
2021/12/03 02:08:41;;;;;;;9.02;4.95;;;-0.50;99.90;;;;;;6168906;23;20447;-90
2021/12/03 02:11:11;;;;;;;12.23;7.10;;;-0.50;99.90;;;;;;6133758;23;20047;-90
2021/12/03 02:13:39;;;;;;;9.73;6.38;;;-0.50;99.90;;;;;;6133792;23;20334;-90
2021/12/03 02:16:08;;;;;;;11.60;7.75;;;-0.50;99.90;;;;;;6134226;23;20028;-89
2021/12/03 02:18:36;;;;;;;14.88;5.53;;;-0.50;99.90;;;;;;6108513;23;20029;-89
2021/12/03 02:21:06;;;;;;;11.10;6.15;;;-0.50;99.90;;;;;;6168559;23;20325;-90
2021/12/03 02:23:35;;;;;;;11.43;8.48;;;-0.50;99.90;;;;;;6186096;23;20353;-89
2021/12/03 02:26:03;;;;;;;8.95;6.20;;;-0.50;99.90;;;;;;6109055;23;20013;-90
2021/12/03 02:28:35;;;;;;;8.75;5.53;;;-0.50;99.90;;;;;;6109085;23;20021;-89
2021/12/03 02:31:04;;;;;;;13.65;8.65;;;-0.50;99.90;;;;;;6137650;23;20032;-91
2021/12/03 02:33:34;;;;;;;7.72;5.65;;;-0.50;99.90;;;;;;6109368;23;20013;-90
2021/12/03 02:36:05;;;;;;;8.30;6.55;;;-0.50;99.90;;;;;;6133362;23;20025;-90
2021/12/03 02:38:34;;;;;;;9.10;6.03;;;-0.50;99.90;;;;;;6139364;23;20017;-90
2021/12/03 02:41:02;;;;;;;9.13;6.55;;;-0.40;99.90;;;;;;6193987;23;20013;-90
2021/12/03 02:43:30;;;;;;;8.18;5.55;;;-0.40;99.90;;;;;;6156087;23;20033;-89
2021/12/03 02:45:58;;;;;;;17.77;6.38;;;-0.50;99.90;;;;;;6108311;23;20024;-90
2021/12/03 02:48:27;;;;;;;8.32;7.45;;;-0.40;99.90;;;;;;6108648;23;20024;-90
2021/12/03 02:50:55;;;;;;;13.93;7.18;;;-0.40;99.90;;;;;;6131621;23;20024;-90
2021/12/03 02:53:44;;;;;;;9.02;6.07;;;-0.50;99.90;;;;;;6133663;23;20448;-90
2021/12/03 02:56:55;;;;;;;8.30;6.75;;;-0.50;99.90;;;;;;6127546;23;20036;-91
2021/12/03 02:59:58;;;;;;;13.20;7.00;;;-0.50;99.90;;;;;;6136452;23;20014;-90
2021/12/03 03:02:46;;;;;;;8.68;6.18;;;-0.50;99.90;;;;;;6164253;23;20598;-90
2021/12/03 03:05:16;;;;;;;7.63;5.30;;;-0.50;99.90;;;;;;6186915;23;20021;-90
2021/12/03 03:07:45;;;;;;;6.25;5.32;;;-0.50;99.90;;;;;;6157309;23;20021;-90
2021/12/03 03:10:16;;;;;;;10.05;7.65;;;-0.50;99.90;;;;;;6139793;23;20021;-91
2021/12/03 03:12:43;;;;;;;9.10;6.10;;;-0.60;99.90;;;;;;6167822;23;20013;-90
2021/12/03 03:15:12;;;;;;;11.30;6.22;;;-0.50;99.90;;;;;;6108677;23;20032;-90
2021/12/03 03:17:41;;;;;;;8.30;5.97;;;-0.40;99.90;;;;;;6167507;23;20018;-90
2021/12/03 03:20:10;;;;;;;7.43;4.75;;;-0.40;99.90;;;;;;6156132;23;20032;-90
2021/12/03 03:22:39;;;;;;;5.78;5.30;;;-0.40;99.90;;;;;;6138369;23;20029;-90
2021/12/03 03:25:12;;;;;;;6.65;5.88;;;-0.50;99.90;;;;;;6192573;23;20028;-90
2021/12/03 03:27:41;;;;;;;6.28;4.63;;;-0.50;99.90;;;;;;6131999;23;20373;-90
2021/12/03 03:30:11;;;;;;;10.98;7.00;;;-0.40;99.90;;;;;;6163819;23;20025;-90
2021/12/03 03:32:41;;;;;;;10.80;6.35;;;-0.50;99.90;;;;;;6167128;23;20009;-90
2021/12/03 03:35:10;;;;;;;6.57;5.50;;;-0.50;99.90;;;;;;6160199;23;20036;-89
2021/12/03 03:37:38;;;;;;;8.20;5.45;;;-0.50;99.90;;;;;;6167245;23;20020;-89
2021/12/03 03:40:07;;;;;;;9.90;8.35;;;-0.50;99.90;;;;;;6156751;23;20028;-91
2021/12/03 03:42:36;;;;;;;9.25;6.13;;;-0.50;99.90;;;;;;6131813;23;20036;-90
2021/12/03 03:45:09;;;;;;;7.43;6.38;;;-0.40;99.90;;;;;;6132955;23;20021;-89
2021/12/03 03:47:38;;;;;;;7.45;6.28;;;-0.40;99.90;;;;;;6158955;23;20024;-89
2021/12/03 03:50:07;;;;;;;10.63;5.97;;;-0.40;99.90;;;;;;6130982;23;20604;-90
2021/12/03 03:52:36;;;;;;;9.60;7.32;;;-0.40;99.90;;;;;;6132743;23;20017;-89
2021/12/03 03:55:05;;;;;;;7.20;6.40;;;-0.40;99.90;;;;;;6161088;23;20025;-91
2021/12/03 03:57:33;;;;;;;7.00;6.00;;;-0.40;99.90;;;;;;6157368;23;20020;-90
2021/12/03 04:00:03;;;;;;;11.68;6.40;;;-0.40;99.90;;;;;;6131361;23;20032;-90
2021/12/03 04:02:38;;;;;;;9.38;6.47;;;-0.50;99.90;;;;;;6132998;23;20025;-90
2021/12/03 04:05:07;;;;;;;9.07;6.13;;;-0.40;99.90;;;;;;6132569;23;20051;-89
2021/12/03 04:07:36;;;;;;;9.25;5.30;;;-0.40;99.90;;;;;;6117995;23;20067;-90
2021/12/03 04:10:08;;;;;;;10.48;7.75;;;-0.40;99.90;;;;;;6106842;23;20029;-90
2021/12/03 04:12:37;;;;;;;16.58;7.10;;;-0.40;99.90;;;;;;6156281;23;20021;-90
2021/12/03 04:15:08;;;;;;;6.75;4.82;;;-0.40;99.90;;;;;;6131555;23;20468;-90
2021/12/03 04:17:37;;;;;;;7.47;6.78;;;-0.50;99.90;;;;;;6132689;23;20345;-89
2021/12/03 04:20:06;;;;;;;7.60;4.80;;;-0.50;99.90;;;;;;6107585;23;20350;-90
2021/12/03 04:22:34;;;;;;;7.93;4.40;;;-0.40;99.90;;;;;;6138569;23;20337;-90
2021/12/03 04:25:05;;;;;;;5.75;4.07;;;-0.40;99.90;;;;;;6166356;23;20013;-90
2021/12/03 04:27:34;;;;;;;7.53;5.00;;;-0.40;99.90;;;;;;6184956;23;20021;-90
2021/12/03 04:30:04;;;;;;;7.82;6.43;;;-0.50;99.90;;;;;;6191522;23;20432;-90
2021/12/03 04:32:32;;;;;;;10.27;7.70;;;-0.40;99.90;;;;;;6193210;23;20016;-90
2021/12/03 04:35:00;;;;;;;6.93;5.72;;;-0.40;99.90;;;;;;6131680;23;20025;-90
2021/12/03 04:37:28;;;;;;;7.10;5.47;;;-0.40;99.90;;;;;;6142207;23;20024;-90
2021/12/03 04:39:56;;;;;;;7.50;4.80;;;-0.50;99.90;;;;;;6106729;23;20036;-90
2021/12/03 04:42:24;;;;;;;7.80;5.50;;;-0.40;99.90;;;;;;6182109;23;20033;-90
2021/12/03 04:44:51;;;;;;;9.20;8.05;;;-0.40;99.90;;;;;;6167265;23;20017;-90
2021/12/03 04:47:19;;;;;;;6.90;5.82;;;-0.40;99.90;;;;;;6185886;23;20337;-90
2021/12/03 04:49:47;;;;;;;7.07;5.25;;;-0.40;99.90;;;;;;6165452;23;20009;-90
2021/12/03 04:52:15;;;;;;;7.45;5.88;;;-0.40;99.90;;;;;;6167423;23;20016;-89
2021/12/03 04:54:43;;;;;;;7.30;6.10;;;-0.40;99.90;;;;;;6155605;23;20028;-91
2021/12/03 04:57:12;;;;;;;10.52;5.45;;;-0.40;99.90;;;;;;6108556;23;20017;-90
2021/12/03 04:59:45;;;;;;;5.15;4.65;;;-0.40;99.90;;;;;;6109153;23;20345;-88
2021/12/03 05:02:13;;;;;;;8.50;5.35;;;-0.40;99.90;;;;;;6132770;23;20658;-90
2021/12/03 05:04:41;;;;;;;8.95;8.05;;;-0.50;99.90;;;;;;6108998;23;20029;-90
2021/12/03 05:09:37;;;;;;;6.35;4.47;;;-0.40;99.90;;;;;;6132711;23;20461;-89
2021/12/03 05:12:07;;;;;;;4.35;3.50;;;-0.40;99.90;;;;;;6106882;23;20029;-89
2021/12/03 05:14:34;;;;;;;3.33;2.67;;;-0.60;99.90;;;;;;6108220;23;20051;-89
2021/12/03 05:17:02;;;;;;;4.68;3.88;;;-0.70;99.90;;;;;;6143203;23;20020;-90
2021/12/03 05:19:30;;;;;;;4.45;3.55;;;-0.80;99.90;;;;;;6157014;23;20452;-91
2021/12/03 05:21:58;;;;;;;4.45;3.38;;;-0.80;99.90;;;;;;6107543;23;20342;-89
2021/12/03 05:24:26;;;;;;;6.95;5.85;;;-0.80;99.90;;;;;;6194421;23;20009;-90
2021/12/03 05:26:54;;;;;;;5.15;4.28;;;-0.70;99.90;;;;;;6157718;23;20352;-89
2021/12/03 05:29:22;;;;;;;7.88;5.10;;;-0.70;99.90;;;;;;6195738;23;20093;-90
2021/12/03 05:31:50;;;;;;;9.52;7.43;;;-0.70;99.90;;;;;;6135185;23;20021;-89
2021/12/03 05:34:28;;;;;;;9.57;7.57;;;-0.60;99.90;;;;;;6111894;23;20519;-90
2021/12/03 05:36:56;;;;;;;5.50;4.97;;;-0.70;99.90;;;;;;6170102;23;20020;-91
2021/12/03 05:39:24;;;;;;;8.88;4.65;;;-0.70;99.90;;;;;;6111034;23;20017;-90
2021/12/03 05:41:52;;;;;;;7.85;6.25;;;-0.80;99.90;;;;;;6144652;23;20065;-91
2021/12/03 05:44:20;;;;;;;7.47;6.63;;;-0.80;99.90;;;;;;6111756;23;20499;-90
2021/12/03 05:46:51;;;;;;;12.00;7.30;;;-0.90;99.90;;;;;;6186541;23;20021;-91
2021/12/03 05:49:19;;;;;;;14.88;8.90;;;-0.90;99.90;;;;;;6112523;23;20401;-88
2021/12/03 05:51:46;;;;;;;12.38;7.55;;;-0.90;99.90;;;;;;6135060;23;20031;-88
2021/12/03 05:54:14;;;;;;;8.32;5.63;;;-0.90;99.90;;;;;;6134330;23;20380;-88
2021/12/03 05:56:42;;;;;;;8.52;5.65;;;-1.00;99.90;;;;;;6109209;23;20024;-89
2021/12/03 05:59:09;;;;;;;9.40;6.47;;;-0.90;99.90;;;;;;6133192;23;20028;-87
2021/12/03 06:01:37;;;;;;;6.50;5.38;;;-1.00;99.90;;;;;;6157652;23;20024;-87
2021/12/03 06:04:20;;;;;;;9.02;6.18;;;-0.90;99.90;;;;;;6132579;23;20032;-88
2021/12/03 06:07:30;;;;;;;7.03;6.32;;;-1.00;99.90;;;;;;6135153;23;20027;-89
2021/12/03 06:10:39;;;;;;;5.75;5.05;;;-0.90;99.90;;;;;;6128739;23;20017;-86
2021/12/03 06:14:07;;;;;;;7.65;5.43;;;-1.00;99.90;;;;;;6168003;23;20013;-84
2021/12/03 06:16:40;;;;;;;11.25;6.43;;;-0.90;99.90;;;;;;6137835;23;20059;-87
2021/12/03 06:19:08;;;;;;;8.43;5.18;;;-1.10;99.90;;;;;;6162972;23;20488;-86
2021/12/03 06:21:36;;;;;;;8.90;5.03;;;-0.90;99.90;;;;;;6167579;23;20022;-87
2021/12/03 06:24:04;;;;;;;7.03;5.57;;;-1.10;99.90;;;;;;6156693;23;20077;-86
2021/12/03 06:26:32;;;;;;;7.95;5.68;;;-1.00;99.90;;;;;;6162673;23;20033;-87
2021/12/03 06:28:59;;;;;;;7.75;5.13;;;-1.00;99.90;;;;;;6108909;23;20021;-88
2021/12/03 06:31:27;;;;;;;12.27;4.85;;;-1.10;99.90;;;;;;6132413;23;20036;-84
2021/12/03 06:33:56;;;;;;;10.35;5.45;;;-1.00;99.90;;;;;;6091155;23;20021;-86
2021/12/03 06:36:26;;;;;;;7.60;6.22;;;-1.00;99.90;;;;;;6136093;23;20024;-86
2021/12/03 06:38:54;;;;;;;6.22;5.63;;;-1.00;99.90;;;;;;6161271;23;20461;-87
2021/12/03 06:41:22;;;;;;;10.35;5.93;;;-1.00;99.90;;;;;;6131268;23;20020;-88
2021/12/03 06:43:51;;;;;;;6.68;6.00;;;-1.00;99.90;;;;;;6158565;23;20032;-88
2021/12/03 06:46:19;;;;;;;8.82;6.20;;;-1.00;99.90;;;;;;6108276;23;20067;-88
2021/12/03 06:48:48;;;;;;;8.70;7.68;;;-1.00;99.90;;;;;;6143649;23;20016;-88
2021/12/03 06:51:18;;;;;;;8.88;6.40;;;-1.00;99.90;;;;;;6161007;23;20036;-88
2021/12/03 06:53:56;;;;;;;7.40;5.55;;;-1.00;99.90;;;;;;6166649;23;20337;-88
2021/12/03 06:56:31;;;;;;;7.40;5.88;;;-1.10;99.90;;;;;;6156654;23;20017;-88
2021/12/03 06:59:00;;;;;;;9.88;6.40;;;-1.10;99.90;;;;;;6105427;23;20017;-86
2021/12/03 07:01:28;;;;;;;8.98;6.20;;;-1.10;99.90;;;;;;6106793;23;20020;-87
2021/12/03 07:03:56;;;;;;;6.63;5.78;;;-1.10;99.90;;;;;;6156992;23;20033;-88
2021/12/03 07:06:24;;;;;;;9.52;5.30;;;-1.10;99.90;;;;;;6163394;23;20460;-87
2021/12/03 07:08:51;;;;;;;6.43;5.68;;;-1.10;99.90;;;;;;6132041;23;20013;-86
2021/12/03 07:11:19;;;;;;;6.28;5.53;;;-1.10;99.90;;;;;;6126630;23;20036;-86
2021/12/03 07:13:48;;;;;;;9.55;7.38;;;-1.10;99.90;;;;;;6161169;23;20020;-86
2021/12/03 07:16:16;;;;;;;8.68;6.00;;;-1.10;99.90;;;;;;6166052;23;20024;-86
2021/12/03 07:18:43;;;;;;;8.77;4.32;;;-1.20;99.90;;;;;;6160186;23;20029;-87
2021/12/03 07:21:14;;;;;;;8.02;6.57;;;-1.20;99.90;;;;;;6129715;23;20021;-88
2021/12/03 07:23:45;;;;;;;7.28;5.35;;;-1.20;99.90;;;;;;6127188;23;20472;-83
2021/12/03 07:26:20;;;;;;;9.32;8.00;;;-1.20;99.90;;;;;;6150965;23;20031;-85
2021/12/03 07:28:47;;;;;;;7.90;6.50;;;-1.20;99.90;;;;;;6156131;23;20063;-82
2021/12/03 07:31:15;;;;;;;6.50;5.85;;;-1.20;99.90;;;;;;6185442;23;20043;-85
2021/12/03 07:33:43;;;;;;;9.38;7.72;;;-1.20;99.90;;;;;;6191488;23;20013;-81
2021/12/03 07:36:11;;;;;;;6.63;5.30;;;-1.20;99.90;;;;;;6165785;23;20009;-84
2021/12/03 07:38:39;;;;;;;17.92;7.50;;;-1.20;99.90;;;;;;6188252;23;20021;-84
2021/12/03 07:41:07;;;;;;;7.50;6.22;;;-1.20;99.90;;;;;;6154836;23;20017;-82
2021/12/03 07:43:34;;;;;;;10.63;6.95;;;-1.20;99.90;;;;;;6130699;23;20024;-85
2021/12/03 07:46:02;;;;;;;6.80;5.68;;;-1.20;99.90;;;;;;6160424;23;20036;-84
2021/12/03 07:48:30;;;;;;;8.82;6.70;;;-1.10;99.90;;;;;;6166876;23;20013;-85
2021/12/03 07:50:58;;;;;;;7.28;5.55;;;-1.00;99.90;;;;;;6184960;23;20025;-85
2021/12/03 07:53:26;;;;;;;9.10;5.65;;;-1.00;99.90;;;;;;6164740;23;20009;-82
2021/12/03 07:55:55;;;;;;;14.73;6.82;;;-1.00;99.90;;;;;;6105454;23;20035;-83
2021/12/03 07:58:23;;;;;;;9.30;6.32;;;-0.90;99.90;;;;;;6130898;23;20028;-84
2021/12/03 08:00:54;;;;;;;7.80;6.32;;;-0.90;99.90;;;;;;6166205;23;20017;-85
2021/12/03 08:03:22;;;;;;;8.25;6.63;;;-0.80;99.90;;;;;;6155230;23;20036;-86
2021/12/03 08:05:50;;;;;;;7.95;4.90;;;-0.80;99.90;;;;;;6157108;23;20456;-87
2021/12/03 08:08:22;;;;;;;7.18;5.78;;;-0.70;99.90;;;;;;6192670;23;20009;-88
2021/12/03 08:10:52;;;;;;;10.85;7.40;;;-0.70;99.90;;;;;;6129564;23;20021;-89
2021/12/03 08:13:20;;;;;;;8.70;5.68;;;-0.70;99.90;;;;;;6166853;23;20020;-88
2021/12/03 08:15:48;;;;;;;13.18;8.40;;;-0.70;99.90;;;;;;6131266;23;20028;-88
2021/12/03 08:18:15;;;;;;;13.13;8.05;;;-0.70;99.90;;;;;;6163833;23;20025;-86
2021/12/03 08:20:43;;;;;;;13.90;7.05;;;-0.70;99.90;;;;;;6155249;23;20013;-87
2021/12/03 08:23:12;;;;;;;9.20;6.68;;;-0.70;99.90;;;;;;6130842;23;20346;-85
2021/12/03 08:25:40;;;;;;;8.07;5.93;;;-0.70;99.90;;;;;;6106446;23;20017;-85
2021/12/03 08:28:08;;;;;;;7.82;6.47;;;-0.60;99.90;;;;;;6181240;23;20028;-86
2021/12/03 08:30:36;;;;;;;14.63;7.70;;;-0.60;99.90;;;;;;6162023;23;20028;-85
2021/12/03 08:33:04;;;;;;;10.50;7.72;;;-0.50;99.90;;;;;;6156117;23;20033;-86
2021/12/03 08:35:33;;;;;;;8.40;6.13;;;-0.50;99.90;;;;;;6158016;23;20475;-86
2021/12/03 08:38:01;;;;;;;13.25;7.22;;;-0.40;99.90;;;;;;6132529;23;20017;-87
2021/12/03 08:40:28;;;;;;;8.02;5.97;;;-0.40;99.90;;;;;;6109865;23;20024;-86
2021/12/03 08:42:57;;;;;;;13.50;7.30;;;-0.40;99.90;;;;;;6133284;23;20022;-86
2021/12/03 08:45:39;;;;;;;12.90;5.43;;;-0.20;99.90;;;;;;6168726;23;20020;-86
2021/12/03 08:48:07;;;;;;;5.93;4.53;;;-0.20;99.90;;;;;;6132307;23;20441;-86
2021/12/03 08:50:46;;;;;;;10.40;5.07;;;0.00;99.90;;;;;;6163378;23;20460;-86
2021/12/03 08:53:21;;;;;;;7.00;5.03;;;0.00;99.90;;;;;;6142319;23;20013;-86
2021/12/03 08:55:54;;;;;;;6.50;5.90;;;0.00;99.90;;;;;;6131354;23;20017;-85
2021/12/03 08:58:21;;;;;;;8.20;6.10;;;0.00;99.90;;;;;;6159260;23;20025;-87
2021/12/03 09:00:49;;;;;;;9.63;6.82;;;0.00;99.90;;;;;;6171038;23;20337;-87
2021/12/03 09:03:17;;;;;;;8.35;6.15;;;0.00;99.90;;;;;;6111891;23;20028;-86
2021/12/03 09:05:47;;;;;;;6.90;5.40;;;0.00;99.90;;;;;;6110961;23;20500;-85
2021/12/03 09:08:14;;;;;;;8.07;6.07;;;-0.10;99.90;;;;;;6110083;23;20029;-79
2021/12/03 09:10:42;;;;;;;15.02;5.85;;;-0.20;99.90;;;;;;6187918;23;20025;-79
2021/12/03 09:13:10;;;;;;;5.70;5.03;;;-0.20;99.90;;;;;;6193759;23;20013;-81
2021/12/03 09:15:41;;;;;;;10.07;7.47;;;-0.10;99.90;;;;;;6185446;23;20346;-80
2021/12/03 09:20:49;;;;;;;9.63;5.40;;;0.00;99.90;;;;;;6193471;23;20020;-80
2021/12/03 09:23:27;;;;;;;10.90;7.17;;;0.10;99.90;;;;;;6186618;23;20021;-79
2021/12/03 09:26:05;;;;;;;5.18;4.45;;;0.50;99.90;;;;;;6191120;23;20248;-80
2021/12/03 09:28:35;;;;;;;9.77;5.10;;;1.00;99.90;;;;;;6193714;23;20017;-80
2021/12/03 09:31:04;;;;;;;5.78;4.47;;;0.70;99.90;;;;;;6161075;23;20024;-79
2021/12/03 09:33:35;;;;;;;6.80;4.53;;;0.50;99.90;;;;;;6194038;23;20228;-80
2021/12/03 09:36:05;;;;;;;7.88;5.38;;;0.40;99.90;;;;;;6180153;23;20028;-80
2021/12/03 09:38:36;;;;;;;5.53;4.95;;;0.20;99.90;;;;;;6182593;23;20024;-80
2021/12/03 09:41:12;;;;;;;6.00;5.05;;;0.20;99.90;;;;;;6165605;23;20021;-80
2021/12/03 09:43:42;;;;;;;7.53;6.70;;;0.30;99.90;;;;;;6156447;23;20032;-80
2021/12/03 09:48:56;;;;;;;8.43;5.50;;;0.00;99.90;;;;;;6193498;23;20013;-80
2021/12/03 09:51:53;;;;;;;7.30;5.25;;;0.00;99.90;;;;;;6158880;23;20024;-80
2021/12/03 09:54:27;;;;;;;6.28;4.97;;;0.00;99.90;;;;;;6189015;23;20025;-80
2021/12/03 09:57:16;;;;;;;6.80;5.47;;;0.10;99.90;;;;;;6165761;23;20017;-80
2021/12/03 10:18:59;;;;;;;7.20;6.50;;;-0.20;99.90;;;;;;6187704;23;20017;-80
2021/12/03 10:33:53;;;;;;;5.28;4.47;;;0.30;99.90;;;;;;6156164;23;20024;-86
2021/12/03 10:39:10;;;;;;;7.85;4.82;;;0.40;99.90;;;;;;6131380;23;20017;-86
2021/12/03 10:41:58;;;;;;;4.70;4.05;;;0.50;99.90;;;;;;6165838;23;20341;-86
2021/12/03 11:57:12;;;;;;;5.60;4.15;;;0.70;99.90;;;;;;6181737;23;20032;-83
2021/12/03 13:15:26;;;;;;;4.72;2.83;;;1.60;99.90;;;;;;6162671;23;20025;-83
2021/12/03 13:23:32;;;;;;;6.65;6.05;;;1.20;99.90;;;;;;6132478;23;20021;-83
2021/12/03 13:26:33;;;;;;;3.03;2.83;;;1.10;99.90;;;;;;6182213;23;20325;-81
2021/12/03 13:32:25;;;;;;;4.72;3.38;;;0.80;99.90;;;;;;6159711;23;20025;-83
2021/12/03 13:58:14;;;;;;;3.67;3.38;;;0.30;99.90;;;;;;6193714;23;20024;-85
2021/12/03 14:41:31;;;;;;;11.80;6.65;;;0.40;99.90;;;;;;6130919;23;20025;-85
2021/12/03 14:44:14;;;;;;;7.50;3.35;;;0.40;99.90;;;;;;6131602;23;20021;-85
2021/12/03 14:52:21;;;;;;;2.80;2.60;;;0.60;99.90;;;;;;6155999;23;20021;-85
2021/12/03 14:54:52;;;;;;;4.38;3.00;;;0.40;99.90;;;;;;6186848;23;20013;-84
2021/12/03 14:57:49;;;;;;;2.63;2.42;;;0.30;99.90;;;;;;6132633;23;20475;-85
2021/12/03 15:06:19;;;;;;;3.07;2.87;;;0.00;99.90;;;;;;6155531;23;20032;-84
2021/12/03 15:33:06;;;;;;;2.67;2.47;;;-1.00;99.90;;;;;;6130712;23;20021;-85
2021/12/03 15:35:49;;;;;;;3.58;2.83;;;-1.00;99.90;;;;;;6157631;23;20024;-86
2021/12/03 15:57:21;;;;;;;8.13;5.70;;;-1.30;99.90;;;;;;6164271;23;20013;-86
2021/12/03 16:10:41;;;;;;;4.63;3.85;;;-1.70;99.90;;;;;;6129580;23;20017;-87
2021/12/03 16:53:54;;;;;;;4.35;3.13;;;-2.10;99.90;;;;;;6191163;23;20028;-81
2021/12/03 16:56:27;;;;;;;3.30;2.72;;;-2.20;99.90;;;;;;6190864;23;20013;-81
2021/12/03 16:58:58;;;;;;;3.95;3.45;;;-2.40;99.90;;;;;;6160342;23;20021;-83
2021/12/03 17:09:45;;;;;;;7.63;5.55;;;-2.70;99.90;;;;;;6191359;23;20017;-83
2021/12/03 17:12:34;;;;;;;5.65;4.47;;;-2.70;99.90;;;;;;6153667;23;20025;-81
2021/12/03 17:21:22;;;;;;;4.55;4.25;;;-2.60;99.90;;;;;;6166802;23;20025;-81
2021/12/03 17:24:15;;;;;;;3.20;3.00;;;-2.60;99.90;;;;;;6184767;23;20032;-81
2021/12/03 17:29:22;;;;;;;5.75;4.53;;;-2.60;99.90;;;;;;6167885;23;20449;-84
2021/12/03 17:48:43;;;;;;;5.57;3.70;;;-3.00;99.90;;;;;;6157855;23;20040;-83
2021/12/03 17:53:43;;;;;;;4.93;4.53;;;-2.80;99.90;;;;;;6167170;23;20013;-84
2021/12/03 17:56:17;;;;;;;5.68;5.18;;;-2.90;99.90;;;;;;6131193;23;20021;-82
2021/12/03 17:58:51;;;;;;;4.15;3.25;;;-3.00;99.90;;;;;;6163275;23;20013;-81
2021/12/03 18:04:23;;;;;;;4.68;3.65;;;-2.90;99.90;;;;;;6112718;23;20036;-80
2021/12/03 18:07:04;;;;;;;6.18;4.40;;;-2.90;99.90;;;;;;6132604;23;20329;-83
2021/12/03 18:12:58;;;;;;;6.30;4.50;;;-2.90;99.90;;;;;;6156271;23;20171;-82
2021/12/03 18:51:13;;;;;;;5.13;4.18;;;-3.10;99.90;;;;;;6187016;23;20025;-81
2021/12/03 18:56:18;;;;;;;4.13;3.05;;;-3.00;99.90;;;;;;6180840;23;20356;-81
2021/12/03 18:58:52;;;;;;;5.95;4.25;;;-2.90;99.90;;;;;;6187898;23;20017;-81
2021/12/03 19:01:26;;;;;;;7.75;5.40;;;-2.70;99.90;;;;;;6167018;23;20028;-82
2021/12/03 19:06:27;;;;;;;5.43;5.05;;;-2.70;99.90;;;;;;6156276;23;20353;-80
2021/12/03 19:09:10;;;;;;;6.53;4.75;;;-2.60;99.90;;;;;;6167219;23;20013;-80
2021/12/03 19:11:45;;;;;;;5.45;4.93;;;-2.80;99.90;;;;;;6182502;23;20452;-80
2021/12/03 19:14:13;;;;;;;6.75;4.45;;;-3.20;99.90;;;;;;6190678;23;20017;-79
2021/12/03 19:16:41;;;;;;;6.28;4.72;;;-3.30;99.90;;;;;;6166986;23;20337;-80
2021/12/03 19:19:11;;;;;;;7.72;5.75;;;-3.20;99.90;;;;;;6160162;23;20025;-80
2021/12/03 19:21:39;;;;;;;5.90;5.30;;;-3.00;99.90;;;;;;6192638;23;20021;-80
2021/12/03 19:24:10;;;;;;;6.68;5.47;;;-3.10;99.90;;;;;;6131202;23;20475;-81
2021/12/03 19:26:42;;;;;;;8.60;5.55;;;-3.20;99.90;;;;;;6161634;23;20021;-80
2021/12/03 19:29:14;;;;;;;5.43;4.05;;;-3.20;99.90;;;;;;6166461;23;20024;-80
2021/12/03 19:31:47;;;;;;;7.35;5.50;;;-3.10;99.90;;;;;;6181542;23;20028;-80
2021/12/03 19:34:15;;;;;;;8.10;5.97;;;-3.10;99.90;;;;;;6164070;23;20025;-78
2021/12/03 19:36:45;;;;;;;6.97;5.90;;;-3.00;99.90;;;;;;6192836;23;20016;-79
2021/12/03 19:39:16;;;;;;;10.93;6.70;;;-2.90;99.90;;;;;;6186442;23;20021;-82
2021/12/03 19:41:54;;;;;;;6.80;6.05;;;-3.00;99.90;;;;;;6190532;23;20028;-81
2021/12/03 19:44:39;;;;;;;8.00;5.45;;;-3.00;99.90;;;;;;6192587;23;20013;-81
2021/12/03 19:47:09;;;;;;;9.07;5.25;;;-3.00;99.90;;;;;;6186648;23;20452;-80
2021/12/03 19:52:26;;;;;;;15.25;6.47;;;-3.00;99.90;;;;;;6181464;23;20021;-80
2021/12/03 19:54:58;;;;;;;8.90;6.38;;;-3.10;99.90;;;;;;6186164;23;20025;-79
2021/12/03 19:57:26;;;;;;;8.43;5.97;;;-3.20;99.90;;;;;;6192964;23;20013;-79
2021/12/03 19:59:53;;;;;;;7.22;6.18;;;-3.40;99.90;;;;;;6182510;23;20025;-82
2021/12/03 20:02:21;;;;;;;7.32;4.60;;;-3.40;99.90;;;;;;6189032;23;20028;-81
2021/12/03 20:04:49;;;;;;;7.40;5.70;;;-3.40;99.90;;;;;;6187606;23;20024;-78
2021/12/03 20:07:17;;;;;;;7.32;5.35;;;-3.50;99.90;;;;;;6184636;23;20024;-79
2021/12/03 20:09:57;;;;;;;6.07;5.50;;;-3.50;99.90;;;;;;6191141;23;20019;-80
2021/12/03 20:12:26;;;;;;;7.20;5.80;;;-3.50;99.90;;;;;;6192234;23;20020;-83
2021/12/03 20:14:56;;;;;;;8.55;7.72;;;-3.50;99.90;;;;;;6186689;23;20025;-82
2021/12/03 20:17:28;;;;;;;8.43;5.90;;;-3.50;99.90;;;;;;6192620;23;20017;-84
2021/12/03 20:19:58;;;;;;;8.02;6.18;;;-3.50;99.90;;;;;;6155661;23;20021;-85
2021/12/03 20:30:35;;;;;;;6.10;4.85;;;-3.40;99.90;;;;;;6154795;23;20032;-84
2021/12/03 20:38:33;;;;;;;8.68;4.93;;;-3.50;99.90;;;;;;6187713;23;20032;-82
2021/12/03 20:41:04;;;;;;;6.72;5.80;;;-3.40;99.90;;;;;;6191032;23;20021;-82
2021/12/03 20:43:45;;;;;;;7.15;6.57;;;-3.30;99.90;;;;;;6183784;23;20048;-81
2021/12/03 20:54:19;;;;;;;7.40;5.80;;;-3.50;99.90;;;;;;6156148;23;20032;-81
2021/12/03 21:07:56;;;;;;;7.00;6.20;;;-3.50;99.90;;;;;;6156602;23;20419;-82
2021/12/03 21:08:22;;;;;;;9.75;7.15;;;-3.40;99.90;;;;;;6183975;23;20052;-84
2021/12/03 21:10:53;;;;;;;5.90;5.35;;;-3.30;99.90;;;;;;6161824;23;20352;-84
2021/12/03 21:13:28;;;;;;;10.10;9.13;;;-3.30;99.90;;;;;;6194157;23;20013;-81